Aeroporto :
LOGIN :

Iscrizione | Disclaimer

   EN    FR    IT 

 










Sommario :    VFR   VFR Marginale   IFR   IFR Intensivo   IFR Molto Intensivo
Visibilità : 
Base nubi : 
>= 8 km
>= 3000ft
5 / 8 km
1000 / 3000 ft
1500m / 5 km
500 / 1000 ft
800 / 1500m
200 / 500 ft
< 800m
< 200 ft
Simboli :   Temporali  Nebbia  Neve Forte  Precipitazioni Forti  Vento > 20 kt
SIGMETs :   Varie  Temporali  Ghiacco  Turbolenza  Onda orograficha  Ceneri Vulcaniche






- Altitudine del aeroporto : 11 ft
- Codice IATA : MJV


LELC - Murcia San Javier

ULTIMO METAR :
  • 171530Z 22012KT 190V250 CAVOK 18/12 Q1023 NOSIG

METARs OBSOLETI :
  • 171500Z 22012KT 190V250 CAVOK 19/12 Q1023 NOSIG
  • 171430Z 20009KT 160V230 CAVOK 20/12 Q1023 NOSIG
  • 171400Z 17006KT 140V230 CAVOK 20/14 Q1024 NOSIG
  • 171330Z 17006KT 120V210 CAVOK 20/15 Q1024 NOSIG
  • 171300Z 18006KT 140V210 CAVOK 20/17 Q1025 NOSIG

TAF TAF LELC
Valido dal 17 a 12 ore il 18 a 12 ore UTC


171100Z 1712/1812 24006KT 8000 NSC TX20/1713Z TN10/1806Z
BECMG 1720/1722 31010KT
BECMG 1802/1804 04010KT



MetMap, La meteo Aeronautica in un colpo d'occhio ! - Copyright ORBIFLY Dicembre 2007 - Disclaimer

ORBIFLY MET'MAP TEAM :

Programmazione e sviluppo : Alexandra Zaïnal
Concezione : Baudouin d'Aumeries
Aiuto per la programmazione : Marc-Olivier Méhu
Supporto tecnico e logistico : Manuel Goepfert
Aiuto per la traduzione : Arnaldo La Scala

Contatto : metmap@orbifly.com




FONTI E CREDITI :

   NOAA